This is the latest recevied weather packets stored in our database for station/object MEGLR. If no packets are shown the sender has not sent any weather packets the latest 10 day(s).
| Time | Temp. | Humidity | Pressure | Rain* | Wind** | Luminosity | Snow |
|---|---|---|---|---|---|---|---|
| 1787629203 | 18.33° C | 85% | 0 hPa | - | - | - | - |
| 1787628603 | 18.33° C | 85% | 0 hPa | - | - | - | - |
| 1787628003 | 18.89° C | 84% | 0 hPa | - | - | - | - |
| 1787627408 | 18.89° C | 82% | 0 hPa | - | - | - | - |
| 1787626804 | 20.56° C | 74% | 0 hPa | - | - | - | - |
| 1787626203 | 20.56° C | 77% | 0 hPa | - | - | - | - |
| 1787625603 | 20.56° C | 78% | 0 hPa | - | - | - | - |
| 1787625003 | 20.56° C | 77% | 0 hPa | - | - | - | - |
| 1787624403 | 21.11° C | 78% | 0 hPa | - | - | - | - |
| 1787623803 | 21.67° C | 75% | 0 hPa | - | - | - | - |
| 1787623203 | 23.89° C | 63% | 0 hPa | - | - | - | - |
| 1787622603 | 22.78° C | 64% | 0 hPa | - | - | - | - |
| 1787622003 | 21.11° C | 79% | 0 hPa | - | - | - | - |
| 1787621403 | 23.89° C | 62% | 0 hPa | - | - | - | - |
| 1787620803 | 25.56° C | 55% | 0 hPa | - | - | - | - |
| 1787620203 | 23.89° C | 62% | 0 hPa | - | - | - | - |
| 1787619604 | 20.56° C | 81% | 0 hPa | - | - | - | - |
| 1787619003 | 20.56° C | 80% | 0 hPa | - | - | - | - |
| 1787618403 | 21.67° C | 73% | 0 hPa | - | - | - | - |
| 1787617803 | 23.89° C | 62% | 0 hPa | - | - | - | - |
| 1787617203 | 25° C | 59% | 0 hPa | - | - | - | - |
| 1787616603 | 25° C | 58% | 0 hPa | - | - | - | - |
| 1787616003 | 25.56° C | 53% | 0 hPa | - | - | - | - |
| 1787615402 | 25.56° C | 54% | 0 hPa | - | - | - | - |
| 1787614803 | 23.33° C | 64% | 0 hPa | - | - | - | - |
* Rain since midnight (hover to see other rain measurements)
** Current wind speed in m/s (hover to see current wind gust speed)